College Place, Washington
Current Conditions -  °F | °C
As of 8:37 PM on Friday 24 Oct 2014 (Local Time) from KALW Reporting Station
Haze Haze  
Wind Chill: 51°   Ceiling: Unl
Heat Index: 51°   Visibility: 4mi
Dew Point: 50°   Wind: 7mph
Humidity: 96%   Direction: 170°S
Pressure: 29.89"   Gusts: NA
Location:  46.03°N, 118.38°W
Report Text: KALW 250337Z AUTO 17006KT 4SM BR SCT002 11/10 A2989 RMK AO2 T01060100
Loading
Personal Weather Stations






























Interactive Weather Map
Tropical Storm Tracking
New forecast layout! Learn more

10-Day Weather Forecast

Advertisements
Track Severe Weather on mobile